Terminal Aerodrome Forecast
Issued by NWS Cleveland, OH

Home | Current Version | Previous Version | Text Only | Print | Product List | Glossary Off
Versions: 1 2 3 4 5 6 7 8 9 10 11 12 13 14 15 16

935
FTUS41 KCLE 210529
TAFERI
TAF
KERI 210529Z 2106/2206 VRB04KT P6SM OVC040
      TEMPO 2106/2107 3SM -SHRA OVC015
     FM210700 30005KT 3SM BR OVC015
     FM211100 30007KT P6SM SCT100
     FM211400 30010KT P6SM SCT035
     FM220100 33012KT P6SM BKN035=

USA.gov is the U.S. government's official web portal to all federal, state and local government web resources and services.